sensor_id;sensor_type;location;lat;lon;timestamp;P1;durP1;ratioP1;P2;durP2;ratioP2
15528;SDS011;7866;52.280;9.500;2023-08-17T00:02:04;3.90;;;1.63;;
15528;SDS011;7866;52.280;9.500;2023-08-17T00:07:06;1.35;;;1.13;;
15528;SDS011;7866;52.280;9.500;2023-08-17T00:12:09;3.70;;;1.45;;
15528;SDS011;7866;52.280;9.500;2023-08-17T00:17:11;1.90;;;1.45;;
15528;SDS011;7866;52.280;9.500;2023-08-17T00:22:12;2.47;;;1.50;;
15528;SDS011;7866;52.280;9.500;2023-08-17T00:27:15;3.10;;;1.52;;
15528;SDS011;7866;52.280;9.500;2023-08-17T00:32:17;2.78;;;1.52;;
15528;SDS011;7866;52.280;9.500;2023-08-17T00:37:18;4.53;;;1.67;;
15528;SDS011;7866;52.280;9.500;2023-08-17T00:42:21;2.35;;;1.63;;
15528;SDS011;7866;52.280;9.500;2023-08-17T00:47:23;5.35;;;1.60;;
15528;SDS011;7866;52.280;9.500;2023-08-17T00:52:26;3.75;;;1.42;;
15528;SDS011;7866;52.280;9.500;2023-08-17T00:57:29;3.55;;;1.55;;
15528;SDS011;7866;52.280;9.500;2023-08-17T01:02:31;3.92;;;1.80;;
15528;SDS011;7866;52.280;9.500;2023-08-17T01:07:33;4.65;;;1.73;;
15528;SDS011;7866;52.280;9.500;2023-08-17T01:12:38;2.63;;;1.80;;
15528;SDS011;7866;52.280;9.500;2023-08-17T01:17:55;3.75;;;2.00;;
15528;SDS011;7866;52.280;9.500;2023-08-17T01:23:03;2.63;;;1.83;;
15528;SDS011;7866;52.280;9.500;2023-08-17T01:28:06;7.47;;;1.98;;
15528;SDS011;7866;52.280;9.500;2023-08-17T01:33:08;5.85;;;2.05;;
15528;SDS011;7866;52.280;9.500;2023-08-17T01:38:16;3.83;;;1.92;;
15528;SDS011;7866;52.280;9.500;2023-08-17T01:43:19;2.75;;;1.83;;
15528;SDS011;7866;52.280;9.500;2023-08-17T01:48:21;4.32;;;2.05;;
15528;SDS011;7866;52.280;9.500;2023-08-17T01:53:24;3.78;;;1.60;;
15528;SDS011;7866;52.280;9.500;2023-08-17T01:58:26;2.25;;;1.73;;
15528;SDS011;7866;52.280;9.500;2023-08-17T02:03:28;5.35;;;2.22;;
15528;SDS011;7866;52.280;9.500;2023-08-17T02:08:32;2.67;;;2.10;;
15528;SDS011;7866;52.280;9.500;2023-08-17T02:13:35;3.95;;;2.00;;
15528;SDS011;7866;52.280;9.500;2023-08-17T02:18:37;2.97;;;1.90;;
15528;SDS011;7866;52.280;9.500;2023-08-17T02:23:40;5.22;;;2.03;;
15528;SDS011;7866;52.280;9.500;2023-08-17T02:28:41;1.90;;;1.80;;
15528;SDS011;7866;52.280;9.500;2023-08-17T02:33:43;3.88;;;2.08;;
15528;SDS011;7866;52.280;9.500;2023-08-17T02:38:46;4.47;;;2.00;;
15528;SDS011;7866;52.280;9.500;2023-08-17T02:43:48;2.15;;;1.73;;
15528;SDS011;7866;52.280;9.500;2023-08-17T02:48:49;2.00;;;1.85;;
15528;SDS011;7866;52.280;9.500;2023-08-17T02:53:52;3.83;;;1.80;;
15528;SDS011;7866;52.280;9.500;2023-08-17T02:58:54;4.20;;;1.92;;
15528;SDS011;7866;52.280;9.500;2023-08-17T03:03:56;2.65;;;2.00;;
15528;SDS011;7866;52.280;9.500;2023-08-17T03:08:59;2.88;;;2.22;;
15528;SDS011;7866;52.280;9.500;2023-08-17T03:14:00;4.28;;;2.33;;
15528;SDS011;7866;52.280;9.500;2023-08-17T03:19:03;3.00;;;2.10;;
15528;SDS011;7866;52.280;9.500;2023-08-17T03:24:08;2.83;;;2.28;;
15528;SDS011;7866;52.280;9.500;2023-08-17T03:29:09;2.67;;;2.42;;
15528;SDS011;7866;52.280;9.500;2023-08-17T03:34:11;5.32;;;2.40;;
15528;SDS011;7866;52.280;9.500;2023-08-17T03:39:14;4.53;;;2.83;;
15528;SDS011;7866;52.280;9.500;2023-08-17T03:44:16;3.13;;;2.20;;
15528;SDS011;7866;52.280;9.500;2023-08-17T03:49:17;3.50;;;2.80;;
15528;SDS011;7866;52.280;9.500;2023-08-17T03:54:20;4.45;;;2.70;;
15528;SDS011;7866;52.280;9.500;2023-08-17T03:59:22;2.03;;;1.88;;
15528;SDS011;7866;52.280;9.500;2023-08-17T04:04:23;5.55;;;2.45;;
15528;SDS011;7866;52.280;9.500;2023-08-17T04:09:26;3.35;;;2.70;;
15528;SDS011;7866;52.280;9.500;2023-08-17T04:14:28;2.60;;;2.38;;
15528;SDS011;7866;52.280;9.500;2023-08-17T04:19:30;2.72;;;2.53;;
15528;SDS011;7866;52.280;9.500;2023-08-17T04:24:32;4.28;;;2.97;;
15528;SDS011;7866;52.280;9.500;2023-08-17T04:29:34;3.53;;;3.08;;
15528;SDS011;7866;52.280;9.500;2023-08-17T04:34:37;4.63;;;3.08;;
15528;SDS011;7866;52.280;9.500;2023-08-17T04:39:40;3.63;;;3.33;;
15528;SDS011;7866;52.280;9.500;2023-08-17T04:44:43;3.03;;;2.83;;
15528;SDS011;7866;52.280;9.500;2023-08-17T04:49:44;3.85;;;2.60;;
15528;SDS011;7866;52.280;9.500;2023-08-17T04:54:47;3.63;;;3.30;;
15528;SDS011;7866;52.280;9.500;2023-08-17T04:59:49;4.50;;;3.05;;
15528;SDS011;7866;52.280;9.500;2023-08-17T05:04:52;4.25;;;2.55;;
15528;SDS011;7866;52.280;9.500;2023-08-17T05:09:55;2.97;;;2.78;;
15528;SDS011;7866;52.280;9.500;2023-08-17T05:14:57;3.47;;;3.17;;
15528;SDS011;7866;52.280;9.500;2023-08-17T05:19:58;4.30;;;3.47;;
15528;SDS011;7866;52.280;9.500;2023-08-17T05:25:01;3.90;;;3.60;;
15528;SDS011;7866;52.280;9.500;2023-08-17T05:30:04;5.10;;;3.30;;
15528;SDS011;7866;52.280;9.500;2023-08-17T05:35:07;3.40;;;3.10;;
15528;SDS011;7866;52.280;9.500;2023-08-17T05:40:10;3.00;;;2.80;;
15528;SDS011;7866;52.280;9.500;2023-08-17T05:45:12;3.25;;;2.95;;
15528;SDS011;7866;52.280;9.500;2023-08-17T05:50:14;4.22;;;2.95;;
15528;SDS011;7866;52.280;9.500;2023-08-17T05:55:17;3.13;;;2.65;;
15528;SDS011;7866;52.280;9.500;2023-08-17T06:00:18;2.67;;;2.47;;
15528;SDS011;7866;52.280;9.500;2023-08-17T06:05:22;3.72;;;2.88;;
15528;SDS011;7866;52.280;9.500;2023-08-17T06:10:26;2.50;;;2.40;;
15528;SDS011;7866;52.280;9.500;2023-08-17T06:15:28;3.38;;;3.05;;
15528;SDS011;7866;52.280;9.500;2023-08-17T06:20:30;4.30;;;3.80;;
15528;SDS011;7866;52.280;9.500;2023-08-17T06:25:33;3.80;;;3.50;;
15528;SDS011;7866;52.280;9.500;2023-08-17T06:30:34;4.50;;;4.10;;
15528;SDS011;7866;52.280;9.500;2023-08-17T06:35:36;4.15;;;3.85;;
15528;SDS011;7866;52.280;9.500;2023-08-17T06:40:39;4.80;;;4.40;;
15528;SDS011;7866;52.280;9.500;2023-08-17T06:45:41;5.00;;;4.55;;
15528;SDS011;7866;52.280;9.500;2023-08-17T06:50:42;5.03;;;4.63;;
15528;SDS011;7866;52.280;9.500;2023-08-17T06:55:45;5.32;;;4.80;;
15528;SDS011;7866;52.280;9.500;2023-08-17T07:00:47;6.25;;;5.65;;
15528;SDS011;7866;52.280;9.500;2023-08-17T07:05:49;6.30;;;5.78;;
15528;SDS011;7866;52.280;9.500;2023-08-17T07:10:52;5.30;;;4.75;;
15528;SDS011;7866;52.280;9.500;2023-08-17T07:15:53;5.65;;;5.10;;
15528;SDS011;7866;52.280;9.500;2023-08-17T07:20:55;5.38;;;4.80;;
15528;SDS011;7866;52.280;9.500;2023-08-17T07:25:58;5.25;;;4.38;;
15528;SDS011;7866;52.280;9.500;2023-08-17T07:31:00;5.53;;;4.85;;
15528;SDS011;7866;52.280;9.500;2023-08-17T07:36:02;4.82;;;4.43;;
15528;SDS011;7866;52.280;9.500;2023-08-17T07:41:06;4.25;;;3.95;;
15528;SDS011;7866;52.280;9.500;2023-08-17T07:46:07;5.60;;;4.65;;
15528;SDS011;7866;52.280;9.500;2023-08-17T07:51:09;4.75;;;4.45;;
15528;SDS011;7866;52.280;9.500;2023-08-17T07:56:12;4.03;;;3.83;;
15528;SDS011;7866;52.280;9.500;2023-08-17T08:01:14;6.30;;;4.50;;
15528;SDS011;7866;52.280;9.500;2023-08-17T08:06:15;5.65;;;5.15;;
15528;SDS011;7866;52.280;9.500;2023-08-17T08:11:20;5.07;;;4.75;;
15528;SDS011;7866;52.280;9.500;2023-08-17T08:16:23;5.28;;;4.85;;
15528;SDS011;7866;52.280;9.500;2023-08-17T08:21:24;5.93;;;5.43;;
15528;SDS011;7866;52.280;9.500;2023-08-17T08:26:28;5.57;;;5.07;;
15528;SDS011;7866;52.280;9.500;2023-08-17T08:31:30;5.95;;;5.45;;
15528;SDS011;7866;52.280;9.500;2023-08-17T08:36:31;6.28;;;5.78;;
15528;SDS011;7866;52.280;9.500;2023-08-17T08:41:34;6.50;;;5.90;;
15528;SDS011;7866;52.280;9.500;2023-08-17T08:46:38;5.38;;;4.88;;
15528;SDS011;7866;52.280;9.500;2023-08-17T08:51:43;5.22;;;4.82;;
15528;SDS011;7866;52.280;9.500;2023-08-17T08:56:49;6.32;;;5.60;;
15528;SDS011;7866;52.280;9.500;2023-08-17T09:01:56;8.43;;;5.90;;
15528;SDS011;7866;52.280;9.500;2023-08-17T09:06:59;6.68;;;6.07;;
15528;SDS011;7866;52.280;9.500;2023-08-17T09:12:04;6.63;;;6.03;;
15528;SDS011;7866;52.280;9.500;2023-08-17T09:17:08;7.07;;;6.47;;
15528;SDS011;7866;52.280;9.500;2023-08-17T09:22:10;6.82;;;6.15;;
15528;SDS011;7866;52.280;9.500;2023-08-17T09:27:13;7.93;;;7.22;;
15528;SDS011;7866;52.280;9.500;2023-08-17T09:32:15;10.90;;;6.68;;
15528;SDS011;7866;52.280;9.500;2023-08-17T09:37:17;6.57;;;6.07;;
15528;SDS011;7866;52.280;9.500;2023-08-17T09:42:20;6.50;;;5.90;;
15528;SDS011;7866;52.280;9.500;2023-08-17T09:47:22;6.65;;;6.05;;
15528;SDS011;7866;52.280;9.500;2023-08-17T09:52:24;6.63;;;5.25;;
15528;SDS011;7866;52.280;9.500;2023-08-17T09:57:27;4.95;;;4.55;;
15528;SDS011;7866;52.280;9.500;2023-08-17T10:02:29;4.10;;;3.80;;
15528;SDS011;7866;52.280;9.500;2023-08-17T10:07:31;3.78;;;3.58;;
15528;SDS011;7866;52.280;9.500;2023-08-17T10:12:41;3.53;;;3.33;;
15528;SDS011;7866;52.280;9.500;2023-08-17T10:17:51;3.55;;;2.92;;
15528;SDS011;7866;52.280;9.500;2023-08-17T10:23:02;2.55;;;2.45;;
15528;SDS011;7866;52.280;9.500;2023-08-17T10:28:13;2.20;;;2.10;;
15528;SDS011;7866;52.280;9.500;2023-08-17T10:33:16;1.95;;;1.85;;
15528;SDS011;7866;52.280;9.500;2023-08-17T10:38:19;2.13;;;2.03;;
15528;SDS011;7866;52.280;9.500;2023-08-17T10:43:22;2.00;;;1.85;;
15528;SDS011;7866;52.280;9.500;2023-08-17T10:48:27;1.80;;;1.70;;
15528;SDS011;7866;52.280;9.500;2023-08-17T10:53:35;1.40;;;1.40;;
15528;SDS011;7866;52.280;9.500;2023-08-17T10:58:44;1.90;;;1.80;;
15528;SDS011;7866;52.280;9.500;2023-08-17T11:03:45;2.00;;;1.80;;
15528;SDS011;7866;52.280;9.500;2023-08-17T11:08:53;1.77;;;1.67;;
15528;SDS011;7866;52.280;9.500;2023-08-17T11:13:58;2.25;;;2.05;;
15528;SDS011;7866;52.280;9.500;2023-08-17T11:19:00;2.50;;;2.30;;
15528;SDS011;7866;52.280;9.500;2023-08-17T11:24:02;2.40;;;2.20;;
15528;SDS011;7866;52.280;9.500;2023-08-17T11:29:10;2.10;;;2.00;;
15528;SDS011;7866;52.280;9.500;2023-08-17T11:34:14;2.85;;;1.77;;
15528;SDS011;7866;52.280;9.500;2023-08-17T11:39:15;2.40;;;2.20;;
15528;SDS011;7866;52.280;9.500;2023-08-17T11:44:21;2.28;;;2.08;;
15528;SDS011;7866;52.280;9.500;2023-08-17T11:49:23;2.67;;;2.47;;
15528;SDS011;7866;52.280;9.500;2023-08-17T11:54:25;2.83;;;2.47;;
15528;SDS011;7866;52.280;9.500;2023-08-17T11:59:28;2.42;;;2.28;;
15528;SDS011;7866;52.280;9.500;2023-08-17T12:04:32;2.47;;;2.38;;
15528;SDS011;7866;52.280;9.500;2023-08-17T12:09:34;2.80;;;2.60;;
15528;SDS011;7866;52.280;9.500;2023-08-17T12:14:39;2.35;;;2.15;;
15528;SDS011;7866;52.280;9.500;2023-08-17T12:19:42;2.42;;;2.22;;
15528;SDS011;7866;52.280;9.500;2023-08-17T12:24:44;2.60;;;2.40;;
15528;SDS011;7866;52.280;9.500;2023-08-17T12:29:47;3.28;;;2.50;;
15528;SDS011;7866;52.280;9.500;2023-08-17T12:34:49;4.95;;;3.33;;
15528;SDS011;7866;52.280;9.500;2023-08-17T12:39:51;3.45;;;3.15;;
15528;SDS011;7866;52.280;9.500;2023-08-17T12:44:54;3.65;;;3.35;;
15528;SDS011;7866;52.280;9.500;2023-08-17T12:49:56;3.83;;;3.00;;
15528;SDS011;7866;52.280;9.500;2023-08-17T12:54:57;6.00;;;4.95;;
15528;SDS011;7866;52.280;9.500;2023-08-17T13:00:00;7.47;;;4.90;;
15528;SDS011;7866;52.280;9.500;2023-08-17T13:05:02;7.63;;;5.03;;
15528;SDS011;7866;52.280;9.500;2023-08-17T13:10:04;8.77;;;5.07;;
15528;SDS011;7866;52.280;9.500;2023-08-17T13:15:08;5.65;;;4.18;;
15528;SDS011;7866;52.280;9.500;2023-08-17T13:20:10;4.63;;;3.95;;
15528;SDS011;7866;52.280;9.500;2023-08-17T13:25:12;5.35;;;3.67;;
15528;SDS011;7866;52.280;9.500;2023-08-17T13:30:15;4.95;;;3.92;;
15528;SDS011;7866;52.280;9.500;2023-08-17T13:35:16;4.43;;;3.80;;
15528;SDS011;7866;52.280;9.500;2023-08-17T13:40:18;4.60;;;4.00;;
15528;SDS011;7866;52.280;9.500;2023-08-17T13:45:21;5.97;;;4.38;;
15528;SDS011;7866;52.280;9.500;2023-08-17T13:50:23;5.97;;;3.83;;
15528;SDS011;7866;52.280;9.500;2023-08-17T13:55:25;6.22;;;4.10;;
15528;SDS011;7866;52.280;9.500;2023-08-17T14:00:28;6.22;;;4.20;;
15528;SDS011;7866;52.280;9.500;2023-08-17T14:05:30;7.93;;;4.20;;
15528;SDS011;7866;52.280;9.500;2023-08-17T14:10:31;5.72;;;4.20;;
15528;SDS011;7866;52.280;9.500;2023-08-17T14:15:34;5.28;;;4.47;;
15528;SDS011;7866;52.280;9.500;2023-08-17T14:20:36;4.78;;;4.00;;
15528;SDS011;7866;52.280;9.500;2023-08-17T14:25:37;4.53;;;3.38;;
15528;SDS011;7866;52.280;9.500;2023-08-17T14:30:40;4.88;;;3.55;;
15528;SDS011;7866;52.280;9.500;2023-08-17T14:35:42;3.92;;;3.17;;
15528;SDS011;7866;52.280;9.500;2023-08-17T14:40:44;7.85;;;3.53;;
15528;SDS011;7866;52.280;9.500;2023-08-17T14:45:48;5.38;;;3.78;;
15528;SDS011;7866;52.280;9.500;2023-08-17T14:50:50;5.70;;;2.80;;
15528;SDS011;7866;52.280;9.500;2023-08-17T14:55:51;3.88;;;3.13;;
15528;SDS011;7866;52.280;9.500;2023-08-17T15:00:54;3.78;;;2.90;;
15528;SDS011;7866;52.280;9.500;2023-08-17T15:05:56;5.07;;;4.10;;
15528;SDS011;7866;52.280;9.500;2023-08-17T15:10:58;5.50;;;3.78;;
15528;SDS011;7866;52.280;9.500;2023-08-17T15:16:03;4.47;;;3.63;;
15528;SDS011;7866;52.280;9.500;2023-08-17T15:21:05;4.70;;;3.38;;
15528;SDS011;7866;52.280;9.500;2023-08-17T15:26:07;6.88;;;3.58;;
15528;SDS011;7866;52.280;9.500;2023-08-17T15:31:12;6.45;;;3.78;;
15528;SDS011;7866;52.280;9.500;2023-08-17T15:36:13;5.28;;;3.70;;
15528;SDS011;7866;52.280;9.500;2023-08-17T15:41:18;7.15;;;4.43;;
15528;SDS011;7866;52.280;9.500;2023-08-17T15:46:21;7.40;;;3.67;;
15528;SDS011;7866;52.280;9.500;2023-08-17T15:51:23;5.25;;;3.83;;
15528;SDS011;7866;52.280;9.500;2023-08-17T15:56:27;5.60;;;4.13;;
15528;SDS011;7866;52.280;9.500;2023-08-17T16:01:30;6.72;;;3.47;;
15528;SDS011;7866;52.280;9.500;2023-08-17T16:06:32;6.82;;;4.07;;
15528;SDS011;7866;52.280;9.500;2023-08-17T16:11:34;6.10;;;4.05;;
15528;SDS011;7866;52.280;9.500;2023-08-17T16:16:37;6.93;;;4.03;;
15528;SDS011;7866;52.280;9.500;2023-08-17T16:21:38;6.47;;;4.18;;
15528;SDS011;7866;52.280;9.500;2023-08-17T16:26:40;7.47;;;4.10;;
15528;SDS011;7866;52.280;9.500;2023-08-17T16:31:43;7.00;;;4.40;;
15528;SDS011;7866;52.280;9.500;2023-08-17T16:36:45;6.45;;;3.83;;
15528;SDS011;7866;52.280;9.500;2023-08-17T16:41:46;5.93;;;4.35;;
15528;SDS011;7866;52.280;9.500;2023-08-17T16:46:49;10.52;;;5.75;;
15528;SDS011;7866;52.280;9.500;2023-08-17T16:51:51;7.82;;;4.85;;
15528;SDS011;7866;52.280;9.500;2023-08-17T16:56:52;8.45;;;5.07;;
15528;SDS011;7866;52.280;9.500;2023-08-17T17:01:56;8.70;;;5.00;;
15528;SDS011;7866;52.280;9.500;2023-08-17T17:06:58;6.90;;;5.15;;
15528;SDS011;7866;52.280;9.500;2023-08-17T17:12:00;6.55;;;5.00;;
15528;SDS011;7866;52.280;9.500;2023-08-17T17:17:03;7.22;;;5.22;;
15528;SDS011;7866;52.280;9.500;2023-08-17T17:22:05;7.32;;;4.93;;
15528;SDS011;7866;52.280;9.500;2023-08-17T17:27:07;8.32;;;5.38;;
15528;SDS011;7866;52.280;9.500;2023-08-17T17:32:10;8.15;;;5.18;;
15528;SDS011;7866;52.280;9.500;2023-08-17T17:37:11;6.93;;;4.28;;
15528;SDS011;7866;52.280;9.500;2023-08-17T17:42:13;5.38;;;4.07;;
15528;SDS011;7866;52.280;9.500;2023-08-17T17:47:16;5.10;;;4.50;;
15528;SDS011;7866;52.280;9.500;2023-08-17T17:52:17;7.53;;;4.45;;
15528;SDS011;7866;52.280;9.500;2023-08-17T17:57:19;5.95;;;4.72;;
15528;SDS011;7866;52.280;9.500;2023-08-17T18:02:24;5.40;;;4.43;;
15528;SDS011;7866;52.280;9.500;2023-08-17T18:07:27;8.13;;;4.38;;
15528;SDS011;7866;52.280;9.500;2023-08-17T18:12:29;8.52;;;4.88;;
15528;SDS011;7866;52.280;9.500;2023-08-17T18:17:33;8.68;;;5.97;;
15528;SDS011;7866;52.280;9.500;2023-08-17T18:22:35;7.05;;;6.32;;
15528;SDS011;7866;52.280;9.500;2023-08-17T18:27:37;12.23;;;6.32;;
15528;SDS011;7866;52.280;9.500;2023-08-17T18:32:40;12.75;;;6.63;;
15528;SDS011;7866;52.280;9.500;2023-08-17T18:37:42;11.77;;;6.53;;
15528;SDS011;7866;52.280;9.500;2023-08-17T18:42:45;15.90;;;6.90;;
15528;SDS011;7866;52.280;9.500;2023-08-17T18:47:48;10.30;;;6.32;;
15528;SDS011;7866;52.280;9.500;2023-08-17T18:52:50;14.82;;;7.20;;
15528;SDS011;7866;52.280;9.500;2023-08-17T18:57:52;11.48;;;7.13;;
15528;SDS011;7866;52.280;9.500;2023-08-17T19:02:56;12.82;;;6.90;;
15528;SDS011;7866;52.280;9.500;2023-08-17T19:07:58;15.43;;;7.47;;
15528;SDS011;7866;52.280;9.500;2023-08-17T19:13:00;10.73;;;6.70;;
15528;SDS011;7866;52.280;9.500;2023-08-17T19:18:04;15.68;;;8.45;;
15528;SDS011;7866;52.280;9.500;2023-08-17T19:23:06;15.38;;;7.68;;
15528;SDS011;7866;52.280;9.500;2023-08-17T19:28:07;15.48;;;8.55;;
15528;SDS011;7866;52.280;9.500;2023-08-17T19:33:10;16.92;;;7.35;;
15528;SDS011;7866;52.280;9.500;2023-08-17T19:38:12;17.38;;;8.55;;
15528;SDS011;7866;52.280;9.500;2023-08-17T19:43:14;16.50;;;8.45;;
15528;SDS011;7866;52.280;9.500;2023-08-17T19:48:17;16.95;;;7.95;;
15528;SDS011;7866;52.280;9.500;2023-08-17T19:53:18;15.02;;;8.75;;
15528;SDS011;7866;52.280;9.500;2023-08-17T19:58:20;20.70;;;11.30;;
15528;SDS011;7866;52.280;9.500;2023-08-17T20:03:23;18.15;;;9.52;;
15528;SDS011;7866;52.280;9.500;2023-08-17T20:08:25;19.10;;;8.15;;
15528;SDS011;7866;52.280;9.500;2023-08-17T20:13:26;16.70;;;8.63;;
15528;SDS011;7866;52.280;9.500;2023-08-17T20:18:29;13.30;;;7.53;;
15528;SDS011;7866;52.280;9.500;2023-08-17T20:23:31;13.35;;;7.60;;
15528;SDS011;7866;52.280;9.500;2023-08-17T20:28:33;12.18;;;7.88;;
15528;SDS011;7866;52.280;9.500;2023-08-17T20:33:36;12.07;;;7.20;;
15528;SDS011;7866;52.280;9.500;2023-08-17T20:38:38;17.90;;;9.27;;
15528;SDS011;7866;52.280;9.500;2023-08-17T20:43:39;13.60;;;7.72;;
15528;SDS011;7866;52.280;9.500;2023-08-17T20:48:42;15.13;;;8.38;;
15528;SDS011;7866;52.280;9.500;2023-08-17T20:53:44;12.80;;;7.53;;
15528;SDS011;7866;52.280;9.500;2023-08-17T20:58:46;12.68;;;8.18;;
15528;SDS011;7866;52.280;9.500;2023-08-17T21:08:52;13.93;;;8.82;;
15528;SDS011;7866;52.280;9.500;2023-08-17T21:13:53;13.07;;;8.77;;
15528;SDS011;7866;52.280;9.500;2023-08-17T21:18:55;11.18;;;8.32;;
15528;SDS011;7866;52.280;9.500;2023-08-17T21:24:00;11.98;;;8.57;;
15528;SDS011;7866;52.280;9.500;2023-08-17T21:29:02;13.07;;;8.82;;
15528;SDS011;7866;52.280;9.500;2023-08-17T21:34:04;10.25;;;8.85;;
15528;SDS011;7866;52.280;9.500;2023-08-17T21:39:07;14.50;;;9.35;;
15528;SDS011;7866;52.280;9.500;2023-08-17T21:44:09;16.17;;;9.75;;
15528;SDS011;7866;52.280;9.500;2023-08-17T21:49:11;18.00;;;10.02;;
15528;SDS011;7866;52.280;9.500;2023-08-17T21:54:14;17.15;;;10.10;;
15528;SDS011;7866;52.280;9.500;2023-08-17T21:59:15;16.00;;;10.63;;
15528;SDS011;7866;52.280;9.500;2023-08-17T22:04:17;13.13;;;10.00;;
15528;SDS011;7866;52.280;9.500;2023-08-17T22:09:20;11.05;;;8.85;;
15528;SDS011;7866;52.280;9.500;2023-08-17T22:14:22;11.63;;;9.57;;
15528;SDS011;7866;52.280;9.500;2023-08-17T22:19:23;13.82;;;9.68;;
15528;SDS011;7866;52.280;9.500;2023-08-17T22:24:27;15.40;;;9.10;;
15528;SDS011;7866;52.280;9.500;2023-08-17T22:29:28;11.48;;;9.07;;
15528;SDS011;7866;52.280;9.500;2023-08-17T22:34:30;11.02;;;9.32;;
15528;SDS011;7866;52.280;9.500;2023-08-17T22:39:33;10.75;;;9.27;;
15528;SDS011;7866;52.280;9.500;2023-08-17T22:44:35;9.77;;;8.80;;
15528;SDS011;7866;52.280;9.500;2023-08-17T22:49:36;11.38;;;9.20;;
15528;SDS011;7866;52.280;9.500;2023-08-17T22:54:39;11.75;;;9.00;;
15528;SDS011;7866;52.280;9.500;2023-08-17T22:59:41;11.48;;;9.55;;
15528;SDS011;7866;52.280;9.500;2023-08-17T23:04:42;11.95;;;10.15;;
15528;SDS011;7866;52.280;9.500;2023-08-17T23:09:45;12.43;;;11.18;;
15528;SDS011;7866;52.280;9.500;2023-08-17T23:14:47;13.38;;;11.95;;
15528;SDS011;7866;52.280;9.500;2023-08-17T23:19:49;12.40;;;11.10;;
15528;SDS011;7866;52.280;9.500;2023-08-17T23:24:52;17.70;;;13.30;;
15528;SDS011;7866;52.280;9.500;2023-08-17T23:29:53;14.73;;;12.70;;
15528;SDS011;7866;52.280;9.500;2023-08-17T23:34:55;14.40;;;12.85;;
15528;SDS011;7866;52.280;9.500;2023-08-17T23:39:58;14.77;;;12.98;;
15528;SDS011;7866;52.280;9.500;2023-08-17T23:44:59;15.90;;;13.05;;
15528;SDS011;7866;52.280;9.500;2023-08-17T23:50:01;20.83;;;12.98;;
15528;SDS011;7866;52.280;9.500;2023-08-17T23:55:06;16.73;;;14.02;;
